Time;durP1;ratioP1;P1;durP2;ratioP2;P2;SDS_P1;SDS_P2;PMS_P1;PMS_P2;Temp;Humidity;BMP_temperature;BMP_pressure;BME280_temperature;BME280_humidity;BME280_pressure;Samples;Min_cycle;Max_cycle;Signal;HPM_P1;HPM_P2
2022/01/04 00:01:34;;;;;;;7.32;3.50;;;;;;;;;;5034860;28;20284;-65
2022/01/04 00:04:00;;;;;;;9.95;3.22;;;;;;;;;;5017110;28;20025;-65
2022/01/04 00:06:25;;;;;;;16.75;4.32;;;;;;;;;;5017442;28;20025;-64
2022/01/04 00:08:55;;;;;;;10.02;3.90;;;;;;;;;;5035013;28;20021;-64
2022/01/04 00:11:32;;;;;;;10.68;3.78;;;;;;;;;;5017379;28;20060;-62
2022/01/04 00:13:57;;;;;;;9.32;3.83;;;;;;;;;;5021828;28;20472;-66
2022/01/04 00:16:22;;;;;;;10.05;4.05;;;;;;;;;;5016746;28;20124;-60
2022/01/04 00:18:48;;;;;;;13.90;4.70;;;;;;;;;;5034223;28;20392;-59
2022/01/04 00:21:13;;;;;;;9.55;3.55;;;;;;;;;;5034653;28;20224;-59
2022/01/04 00:23:39;;;;;;;8.65;3.60;;;;;;;;;;5034281;28;20022;-58
2022/01/04 00:26:04;;;;;;;8.95;4.07;;;;;;;;;;5034185;28;20358;-60
2022/01/04 00:28:30;;;;;;;13.10;4.07;;;;;;;;;;5034194;28;20116;-59
2022/01/04 00:30:56;;;;;;;20.10;3.90;;;;;;;;;;5033769;28;20049;-58
2022/01/04 00:33:22;;;;;;;12.57;3.85;;;;;;;;;;5034098;28;20021;-58
2022/01/04 00:35:47;;;;;;;11.45;4.80;;;;;;;;;;5012649;28;20388;-57
2022/01/04 00:38:13;;;;;;;10.55;3.92;;;;;;;;;;5026421;28;20053;-64
2022/01/04 00:40:38;;;;;;;12.68;4.65;;;;;;;;;;5024888;28;20033;-62
2022/01/04 00:43:05;;;;;;;8.80;3.85;;;;;;;;;;5033385;28;20037;-56
2022/01/04 00:45:33;;;;;;;7.18;3.45;;;;;;;;;;5033247;28;20116;-64
2022/01/04 00:50:28;;;;;;;9.80;3.97;;;;;;;;;;5025681;28;20507;-65
2022/01/04 00:52:53;;;;;;;9.68;3.90;;;;;;;;;;5027822;28;20029;-59
2022/01/04 00:55:19;;;;;;;13.15;3.78;;;;;;;;;;5025175;28;20041;-61
2022/01/04 00:57:45;;;;;;;13.07;4.45;;;;;;;;;;5025335;28;20040;-61
2022/01/04 01:00:12;;;;;;;11.25;4.50;;;;;;;;;;5032939;28;20041;-64
2022/01/04 01:02:38;;;;;;;12.20;3.65;;;;;;;;;;5033124;28;20392;-60
2022/01/04 01:05:04;;;;;;;9.52;3.83;;;;;;;;;;5015484;28;20033;-59
2022/01/04 01:07:29;;;;;;;11.93;4.32;;;;;;;;;;5023605;28;20540;-64
2022/01/04 01:12:23;;;;;;;7.35;2.88;;;;;;;;;;5033249;28;20120;-60
2022/01/04 01:14:48;;;;;;;9.75;3.60;;;;;;;;;;5032932;28;20084;-63
2022/01/04 01:17:14;;;;;;;10.93;4.10;;;;;;;;;;5033199;28;20033;-65
2022/01/04 01:19:39;;;;;;;8.82;3.97;;;;;;;;;;5033273;28;20497;-60
2022/01/04 01:22:05;;;;;;;11.55;3.80;;;;;;;;;;5031123;28;20024;-59
2022/01/04 01:24:30;;;;;;;10.63;3.75;;;;;;;;;;5032773;28;20487;-63
2022/01/04 01:26:55;;;;;;;11.82;3.92;;;;;;;;;;5029001;28;20053;-61
2022/01/04 01:29:21;;;;;;;10.00;3.55;;;;;;;;;;5025468;28;20033;-63
2022/01/04 01:31:46;;;;;;;12.57;4.00;;;;;;;;;;5032458;28;20064;-62
2022/01/04 01:34:12;;;;;;;11.93;3.92;;;;;;;;;;5032686;28;20140;-62
2022/01/04 01:36:37;;;;;;;9.43;3.78;;;;;;;;;;5032678;28;20026;-62
2022/01/04 01:39:03;;;;;;;10.57;4.05;;;;;;;;;;5032814;28;20033;-62
2022/01/04 01:41:29;;;;;;;9.32;3.75;;;;;;;;;;5032228;28;20053;-63
2022/01/04 01:43:55;;;;;;;8.07;3.10;;;;;;;;;;5032480;28;20406;-65
2022/01/04 01:46:21;;;;;;;8.73;3.33;;;;;;;;;;5035399;28;20120;-65
2022/01/04 01:48:46;;;;;;;10.45;4.13;;;;;;;;;;5031586;28;20392;-63
2022/01/04 01:51:16;;;;;;;6.10;3.40;;;;;;;;;;5032508;28;20173;-63
2022/01/04 01:53:42;;;;;;;10.68;3.70;;;;;;;;;;5041228;28;20033;-60
2022/01/04 01:56:07;;;;;;;13.55;3.55;;;;;;;;;;5033055;28;20049;-64
2022/01/04 01:58:33;;;;;;;11.68;3.95;;;;;;;;;;5032503;28;20179;-63
2022/01/04 02:00:58;;;;;;;7.05;3.20;;;;;;;;;;5032315;28;20025;-63
2022/01/04 02:03:24;;;;;;;10.52;3.60;;;;;;;;;;5032524;28;20029;-59
2022/01/04 02:05:50;;;;;;;12.77;3.90;;;;;;;;;;5032326;28;20465;-64
2022/01/04 02:20:06;;;;;;;8.05;3.15;;;;;;;;;;5054082;28;20397;-59
2022/01/04 02:22:32;;;;;;;8.25;2.97;;;;;;;;;;5049679;28;20446;-60
2022/01/04 02:36:43;;;;;;;7.03;3.30;;;;;;;;;;5109947;27;20373;-63
2022/01/04 02:39:09;;;;;;;7.75;3.10;;;;;;;;;;5098611;28;20036;-64
2022/01/04 02:41:34;;;;;;;7.45;3.08;;;;;;;;;;5089548;28;20024;-65
2022/01/04 02:43:59;;;;;;;11.50;3.00;;;;;;;;;;5089715;28;20016;-65
2022/01/04 02:46:25;;;;;;;7.35;3.40;;;;;;;;;;5089612;28;20016;-64
2022/01/04 02:48:50;;;;;;;5.57;3.17;;;;;;;;;;5089783;28;20024;-65
2022/01/04 02:51:18;;;;;;;7.63;3.20;;;;;;;;;;5088386;28;20484;-60
2022/01/04 02:53:44;;;;;;;6.30;3.00;;;;;;;;;;5089797;28;20114;-64
2022/01/04 02:56:10;;;;;;;5.45;2.70;;;;;;;;;;5089162;28;20123;-62
2022/01/04 02:58:36;;;;;;;8.98;2.95;;;;;;;;;;5089568;28;20024;-60
2022/01/04 03:01:03;;;;;;;8.25;3.15;;;;;;;;;;5089910;28;20023;-59
2022/01/04 03:03:30;;;;;;;8.13;3.00;;;;;;;;;;5089326;28;20043;-64
2022/01/04 03:05:55;;;;;;;6.05;2.92;;;;;;;;;;5089056;28;20055;-63
2022/01/04 03:08:22;;;;;;;5.70;2.78;;;;;;;;;;5087089;28;20442;-61
2022/01/04 03:10:47;;;;;;;5.47;3.20;;;;;;;;;;5081571;28;20378;-62
2022/01/04 03:13:16;;;;;;;8.05;2.65;;;;;;;;;;5068902;28;20120;-64
2022/01/04 03:15:42;;;;;;;7.88;2.72;;;;;;;;;;5086269;28;20024;-64
2022/01/04 03:18:07;;;;;;;10.85;3.22;;;;;;;;;;5088237;28;20442;-64
2022/01/04 03:20:33;;;;;;;5.75;2.53;;;;;;;;;;5080274;28;20107;-63
2022/01/04 03:22:58;;;;;;;8.05;3.60;;;;;;;;;;5079542;28;20517;-64
2022/01/04 03:25:24;;;;;;;7.47;2.92;;;;;;;;;;5091585;28;20122;-64
2022/01/04 03:27:49;;;;;;;5.75;3.20;;;;;;;;;;5094097;28;20394;-63
2022/01/04 03:30:15;;;;;;;7.53;3.15;;;;;;;;;;5088943;28;20031;-65
2022/01/04 03:32:40;;;;;;;8.40;3.28;;;;;;;;;;5088827;28;20059;-60
2022/01/04 03:35:07;;;;;;;7.00;3.17;;;;;;;;;;5090180;28;20064;-60
2022/01/04 03:37:32;;;;;;;8.10;3.30;;;;;;;;;;5083222;28;20098;-65
2022/01/04 03:39:58;;;;;;;6.82;3.20;;;;;;;;;;5081342;28;20466;-63
2022/01/04 03:42:23;;;;;;;6.10;3.13;;;;;;;;;;5089100;28;20523;-65
2022/01/04 03:44:48;;;;;;;6.53;3.10;;;;;;;;;;5095227;28;20031;-58
2022/01/04 03:47:14;;;;;;;7.65;3.58;;;;;;;;;;5083006;28;20454;-61
2022/01/04 03:49:39;;;;;;;10.38;3.53;;;;;;;;;;5075266;28;20031;-59
2022/01/04 03:52:05;;;;;;;8.75;3.45;;;;;;;;;;5087702;28;20024;-59
2022/01/04 03:54:30;;;;;;;11.77;3.67;;;;;;;;;;5094903;28;20110;-59
2022/01/04 03:56:56;;;;;;;10.52;3.67;;;;;;;;;;5095391;28;20020;-59
2022/01/04 03:59:21;;;;;;;9.10;3.33;;;;;;;;;;5095417;28;20107;-58
2022/01/04 04:01:47;;;;;;;9.07;3.80;;;;;;;;;;5095058;28;20024;-60
2022/01/04 04:04:13;;;;;;;6.30;3.38;;;;;;;;;;5094974;28;20477;-61
2022/01/04 04:06:40;;;;;;;12.93;3.97;;;;;;;;;;5077154;28;20024;-62
2022/01/04 04:09:06;;;;;;;8.38;3.58;;;;;;;;;;5094817;28;20386;-64
2022/01/04 04:11:31;;;;;;;8.65;4.03;;;;;;;;;;5095095;28;20026;-65
2022/01/04 04:13:57;;;;;;;9.20;4.45;;;;;;;;;;5095177;28;20020;-64
2022/01/04 04:16:22;;;;;;;12.43;3.88;;;;;;;;;;5095128;28;20028;-64
2022/01/04 04:18:47;;;;;;;9.98;4.00;;;;;;;;;;5094968;28;20024;-64
2022/01/04 04:21:13;;;;;;;14.20;3.30;;;;;;;;;;5094976;28;20024;-64
2022/01/04 04:23:38;;;;;;;7.68;3.38;;;;;;;;;;5094945;28;20067;-64
2022/01/04 04:26:06;;;;;;;5.82;2.75;;;;;;;;;;5094739;28;20047;-63
2022/01/04 04:28:31;;;;;;;9.57;4.10;;;;;;;;;;5094626;28;20024;-65
2022/01/04 04:30:57;;;;;;;9.48;3.38;;;;;;;;;;5095016;28;20431;-64
2022/01/04 04:33:23;;;;;;;7.57;3.70;;;;;;;;;;5094896;28;20028;-65
2022/01/04 04:35:48;;;;;;;9.25;3.15;;;;;;;;;;5094589;28;20036;-64
2022/01/04 04:38:14;;;;;;;6.68;3.55;;;;;;;;;;5094755;28;20533;-65
2022/01/04 04:40:39;;;;;;;16.58;4.32;;;;;;;;;;5109422;28;20110;-65
2022/01/04 04:43:06;;;;;;;8.05;2.65;;;;;;;;;;5113173;28;20027;-65
2022/01/04 04:45:31;;;;;;;7.53;2.80;;;;;;;;;;5094531;28;20032;-63
2022/01/04 04:47:56;;;;;;;9.82;4.22;;;;;;;;;;5093501;28;20023;-64
2022/01/04 04:50:22;;;;;;;5.60;3.08;;;;;;;;;;5094641;28;20053;-64
2022/01/04 04:52:47;;;;;;;9.32;3.85;;;;;;;;;;5094309;28;20028;-63
2022/01/04 04:55:13;;;;;;;8.60;4.47;;;;;;;;;;5094303;28;20081;-61
2022/01/04 04:57:39;;;;;;;10.43;4.78;;;;;;;;;;5094245;28;20095;-61
2022/01/04 05:00:07;;;;;;;8.73;3.78;;;;;;;;;;5104356;28;20475;-63
2022/01/04 05:02:32;;;;;;;7.35;3.47;;;;;;;;;;5095766;28;20363;-59
2022/01/04 05:04:58;;;;;;;8.23;3.67;;;;;;;;;;5094204;28;20080;-57
2022/01/04 05:07:23;;;;;;;10.00;3.38;;;;;;;;;;5094015;28;20576;-61
2022/01/04 05:09:49;;;;;;;7.25;3.05;;;;;;;;;;5094016;28;20367;-62
2022/01/04 05:12:14;;;;;;;8.30;3.38;;;;;;;;;;5094162;28;20076;-64
2022/01/04 05:14:45;;;;;;;9.32;3.53;;;;;;;;;;5093842;28;20047;-65
2022/01/04 05:17:11;;;;;;;8.73;3.42;;;;;;;;;;5096273;28;20488;-61
2022/01/04 05:19:36;;;;;;;9.55;3.35;;;;;;;;;;5114382;28;20028;-61
2022/01/04 05:22:02;;;;;;;7.93;3.45;;;;;;;;;;5104099;28;20012;-63
2022/01/04 05:24:27;;;;;;;6.97;3.33;;;;;;;;;;5107289;28;20062;-65
2022/01/04 05:26:53;;;;;;;14.20;3.95;;;;;;;;;;5097750;28;20465;-65
2022/01/04 05:29:18;;;;;;;11.05;3.85;;;;;;;;;;5093579;28;20082;-65
2022/01/04 05:31:44;;;;;;;5.95;3.70;;;;;;;;;;5093481;28;20538;-65
2022/01/04 05:34:09;;;;;;;7.00;3.03;;;;;;;;;;5093693;28;20034;-65
2022/01/04 05:36:35;;;;;;;10.82;3.58;;;;;;;;;;5093014;28;20053;-65
2022/01/04 05:39:00;;;;;;;7.07;3.67;;;;;;;;;;5093292;28;20028;-65
2022/01/04 05:41:26;;;;;;;6.78;3.63;;;;;;;;;;5093251;28;20032;-63
2022/01/04 05:43:51;;;;;;;7.10;3.15;;;;;;;;;;5100453;28;20441;-63
2022/01/04 05:46:17;;;;;;;6.68;3.58;;;;;;;;;;5113693;28;20023;-64
2022/01/04 05:48:43;;;;;;;7.47;3.63;;;;;;;;;;5113808;28;20020;-65
2022/01/04 05:51:08;;;;;;;9.57;3.90;;;;;;;;;;5093441;28;20047;-65
2022/01/04 05:53:34;;;;;;;10.45;4.00;;;;;;;;;;5098288;28;20035;-65
2022/01/04 05:55:59;;;;;;;9.35;3.72;;;;;;;;;;5108754;28;20073;-65
2022/01/04 05:58:25;;;;;;;9.45;3.80;;;;;;;;;;5093285;28;20488;-64
2022/01/04 06:00:50;;;;;;;11.15;4.00;;;;;;;;;;5092954;28;20431;-64
2022/01/04 06:03:16;;;;;;;8.65;3.78;;;;;;;;;;5093139;28;20063;-65
2022/01/04 06:05:41;;;;;;;8.63;3.45;;;;;;;;;;5092886;28;20024;-65
2022/01/04 06:08:07;;;;;;;11.02;3.40;;;;;;;;;;5103024;28;20024;-64
2022/01/04 06:10:38;;;;;;;11.27;3.90;;;;;;;;;;5113505;28;20026;-63
2022/01/04 06:15:29;;;;;;;9.68;3.88;;;;;;;;;;5092934;28;20106;-65
2022/01/04 06:17:55;;;;;;;8.20;3.65;;;;;;;;;;5092627;28;20028;-64
2022/01/04 06:20:22;;;;;;;9.10;3.83;;;;;;;;;;5092744;28;20381;-65
2022/01/04 06:22:49;;;;;;;10.13;3.80;;;;;;;;;;5092713;28;20028;-63
2022/01/04 06:25:17;;;;;;;11.45;4.32;;;;;;;;;;5095283;28;20480;-65
2022/01/04 06:27:44;;;;;;;9.52;5.85;;;;;;;;;;5096619;28;20028;-63
2022/01/04 06:30:11;;;;;;;14.10;6.18;;;;;;;;;;5092522;28;20438;-66
2022/01/04 06:32:36;;;;;;;17.75;7.07;;;;;;;;;;5092410;28;20450;-65
2022/01/04 06:35:03;;;;;;;14.15;6.03;;;;;;;;;;5092333;28;20044;-65
2022/01/04 06:37:29;;;;;;;13.05;6.53;;;;;;;;;;5092700;28;20107;-65
2022/01/04 06:39:54;;;;;;;13.02;6.55;;;;;;;;;;5092859;28;20406;-62
2022/01/04 06:42:20;;;;;;;15.65;6.28;;;;;;;;;;5082855;28;20055;-61
2022/01/04 06:44:45;;;;;;;16.33;6.05;;;;;;;;;;5092499;28;20024;-65
2022/01/04 06:47:11;;;;;;;14.95;5.70;;;;;;;;;;5091927;28;20043;-62
2022/01/04 06:49:37;;;;;;;13.90;5.90;;;;;;;;;;5092691;28;20073;-58
2022/01/04 06:52:03;;;;;;;11.77;5.90;;;;;;;;;;5092754;28;20020;-61
2022/01/04 06:54:29;;;;;;;16.05;6.15;;;;;;;;;;5092396;28;20032;-59
2022/01/04 06:56:54;;;;;;;13.13;6.15;;;;;;;;;;5093430;28;20495;-56
2022/01/04 06:59:20;;;;;;;10.98;5.43;;;;;;;;;;5109580;28;20020;-58
2022/01/04 07:01:45;;;;;;;10.57;4.60;;;;;;;;;;5092146;28;20020;-59
2022/01/04 07:04:11;;;;;;;10.10;4.25;;;;;;;;;;5092316;28;20047;-57
2022/01/04 07:06:37;;;;;;;9.55;4.00;;;;;;;;;;5092254;28;20390;-61
2022/01/04 07:09:04;;;;;;;10.02;4.15;;;;;;;;;;5092328;28;20032;-63
2022/01/04 07:11:29;;;;;;;8.05;3.45;;;;;;;;;;5093269;28;20434;-65
2022/01/04 07:13:55;;;;;;;6.75;3.70;;;;;;;;;;5096144;28;20062;-62
2022/01/04 07:16:20;;;;;;;7.72;4.28;;;;;;;;;;5095948;28;20052;-61
2022/01/04 07:18:48;;;;;;;8.88;3.70;;;;;;;;;;5096162;28;20073;-65
2022/01/04 07:21:18;;;;;;;8.30;4.45;;;;;;;;;;5095880;28;20355;-63
2022/01/04 07:23:45;;;;;;;9.38;4.32;;;;;;;;;;5096377;28;20042;-61
2022/01/04 07:26:17;;;;;;;9.13;4.75;;;;;;;;;;5095577;28;20374;-61
2022/01/04 07:28:45;;;;;;;10.60;4.07;;;;;;;;;;5095787;28;20501;-62
2022/01/04 07:31:11;;;;;;;9.30;4.28;;;;;;;;;;5095303;28;20105;-65
2022/01/04 07:33:38;;;;;;;8.68;4.05;;;;;;;;;;5095911;28;20082;-61
2022/01/04 07:36:06;;;;;;;8.90;4.15;;;;;;;;;;5095561;28;20048;-63
2022/01/04 07:38:32;;;;;;;11.35;5.53;;;;;;;;;;5095707;28;20454;-62
2022/01/04 07:40:57;;;;;;;8.95;4.15;;;;;;;;;;5095591;28;20052;-61
2022/01/04 07:43:23;;;;;;;9.75;4.50;;;;;;;;;;5095725;28;20501;-62
2022/01/04 07:45:48;;;;;;;10.27;5.30;;;;;;;;;;5095262;28;20028;-63
2022/01/04 07:48:13;;;;;;;11.63;5.00;;;;;;;;;;5095664;28;20028;-57
2022/01/04 07:50:40;;;;;;;6.70;4.10;;;;;;;;;;5095287;28;20020;-62
2022/01/04 07:53:07;;;;;;;10.90;4.78;;;;;;;;;;5095523;28;20028;-62
2022/01/04 07:55:33;;;;;;;10.40;4.85;;;;;;;;;;5095339;28;20031;-63
2022/01/04 07:57:59;;;;;;;10.70;5.38;;;;;;;;;;5095076;28;20047;-62
2022/01/04 08:00:25;;;;;;;12.77;5.35;;;;;;;;;;5095046;28;20482;-64
2022/01/04 08:02:51;;;;;;;10.30;5.68;;;;;;;;;;5095475;28;20032;-61
2022/01/04 08:05:17;;;;;;;9.48;4.72;;;;;;;;;;5095292;28;20032;-61
2022/01/04 08:07:43;;;;;;;11.65;4.88;;;;;;;;;;5095212;28;20035;-61
2022/01/04 08:10:09;;;;;;;6.82;4.15;;;;;;;;;;5095318;28;20035;-59
2022/01/04 08:12:35;;;;;;;9.57;3.90;;;;;;;;;;5095177;28;20028;-61
2022/01/04 08:15:05;;;;;;;8.65;3.72;;;;;;;;;;5094885;28;20133;-60
2022/01/04 08:17:31;;;;;;;7.20;3.50;;;;;;;;;;5095133;28;20024;-59
2022/01/04 08:19:57;;;;;;;9.23;4.20;;;;;;;;;;5093449;28;20035;-57
2022/01/04 08:22:23;;;;;;;8.15;4.43;;;;;;;;;;5094707;28;20051;-58
2022/01/04 08:24:48;;;;;;;9.07;4.25;;;;;;;;;;5109873;28;20395;-56
2022/01/04 08:27:13;;;;;;;13.77;6.60;;;;;;;;;;5103056;28;20036;-60
2022/01/04 08:29:39;;;;;;;11.23;5.82;;;;;;;;;;5094416;28;20020;-62
2022/01/04 08:32:04;;;;;;;8.40;4.93;;;;;;;;;;5094820;28;20036;-65
2022/01/04 08:34:30;;;;;;;11.80;4.30;;;;;;;;;;5083999;28;20024;-58
2022/01/04 08:36:56;;;;;;;7.95;4.65;;;;;;;;;;5087967;28;20508;-63
2022/01/04 08:39:26;;;;;;;8.52;4.45;;;;;;;;;;5103741;28;20024;-60
2022/01/04 08:41:54;;;;;;;9.15;4.40;;;;;;;;;;5076559;28;20425;-65
2022/01/04 08:44:21;;;;;;;8.65;4.32;;;;;;;;;;5086033;28;20067;-60
2022/01/04 08:46:47;;;;;;;9.38;3.65;;;;;;;;;;5080995;28;20028;-64
2022/01/04 08:49:12;;;;;;;7.68;3.22;;;;;;;;;;5079455;28;20476;-63
2022/01/04 08:51:38;;;;;;;8.00;3.75;;;;;;;;;;5078119;28;20390;-59
2022/01/04 08:54:05;;;;;;;13.77;4.05;;;;;;;;;;5085368;28;20031;-60
2022/01/04 08:56:31;;;;;;;11.13;3.88;;;;;;;;;;5083304;28;20494;-58
2022/01/04 08:58:57;;;;;;;8.15;3.88;;;;;;;;;;5081426;28;20386;-61
2022/01/04 09:01:23;;;;;;;9.38;4.38;;;;;;;;;;5095814;28;20028;-63
2022/01/04 09:03:48;;;;;;;10.13;4.15;;;;;;;;;;5086973;28;20055;-58
2022/01/04 09:06:15;;;;;;;11.65;4.50;;;;;;;;;;5085210;28;20438;-61
2022/01/04 09:08:41;;;;;;;12.27;4.25;;;;;;;;;;5089430;28;20035;-62
2022/01/04 09:11:06;;;;;;;12.93;6.15;;;;;;;;;;5093502;28;20024;-59
2022/01/04 09:13:37;;;;;;;10.98;5.22;;;;;;;;;;5088707;28;20039;-63
2022/01/04 09:18:48;;;;;;;7.78;3.50;;;;;;;;;;5093699;28;20078;-60
2022/01/04 09:21:16;;;;;;;13.88;4.93;;;;;;;;;;5081287;28;20170;-60
2022/01/04 09:23:45;;;;;;;9.73;3.95;;;;;;;;;;5077468;28;20032;-60
2022/01/04 09:26:11;;;;;;;8.70;4.43;;;;;;;;;;5081288;28;20066;-62
2022/01/04 09:28:37;;;;;;;8.10;4.40;;;;;;;;;;5083638;28;20025;-61
2022/01/04 09:31:02;;;;;;;11.43;5.15;;;;;;;;;;5091269;28;20024;-61
2022/01/04 09:33:29;;;;;;;10.85;5.32;;;;;;;;;;5086008;28;20024;-63
2022/01/04 09:35:54;;;;;;;9.02;4.82;;;;;;;;;;5088045;28;20044;-64
2022/01/04 09:38:20;;;;;;;7.78;4.57;;;;;;;;;;5085443;28;20035;-60
2022/01/04 09:40:49;;;;;;;10.48;4.55;;;;;;;;;;5081617;28;20035;-63
2022/01/04 09:43:15;;;;;;;8.82;4.72;;;;;;;;;;5090006;28;20440;-60
2022/01/04 09:45:40;;;;;;;10.05;5.00;;;;;;;;;;5086091;28;20362;-58
2022/01/04 09:48:06;;;;;;;9.73;5.07;;;;;;;;;;5078067;28;20031;-59
2022/01/04 09:50:36;;;;;;;7.85;4.63;;;;;;;;;;5086316;28;20043;-58
2022/01/04 09:53:02;;;;;;;9.05;4.40;;;;;;;;;;5083549;28;20052;-58
2022/01/04 09:55:28;;;;;;;8.55;4.25;;;;;;;;;;5076499;28;20145;-56
2022/01/04 09:57:54;;;;;;;8.20;4.15;;;;;;;;;;5077542;28;20170;-63
2022/01/04 10:00:19;;;;;;;9.25;4.07;;;;;;;;;;5082743;28;20069;-59
2022/01/04 10:02:49;;;;;;;9.38;4.28;;;;;;;;;;5083903;28;20033;-58
2022/01/04 10:05:19;;;;;;;8.55;4.57;;;;;;;;;;5092871;28;20028;-58
2022/01/04 10:07:46;;;;;;;12.30;5.22;;;;;;;;;;5086127;28;20117;-60
2022/01/04 10:10:13;;;;;;;10.38;4.45;;;;;;;;;;5080145;28;20036;-58
2022/01/04 10:12:52;;;;;;;8.35;4.70;;;;;;;;;;5082487;28;20070;-58
2022/01/04 10:15:36;;;;;;;9.65;4.32;;;;;;;;;;5082326;28;20038;-58
2022/01/04 10:18:18;;;;;;;9.02;4.07;;;;;;;;;;5085908;28;20031;-58
2022/01/04 10:20:51;;;;;;;6.20;3.53;;;;;;;;;;5092680;28;20385;-58
2022/01/04 10:23:22;;;;;;;7.85;3.95;;;;;;;;;;5092661;28;20024;-64
2022/01/04 10:25:50;;;;;;;8.05;4.15;;;;;;;;;;5073981;28;20408;-63
2022/01/04 10:28:31;;;;;;;9.52;4.10;;;;;;;;;;5088021;28;20024;-59
2022/01/04 10:31:05;;;;;;;7.60;4.90;;;;;;;;;;5079138;28;20123;-64
2022/01/04 10:33:32;;;;;;;7.28;4.07;;;;;;;;;;5088959;28;20420;-62
2022/01/04 10:35:59;;;;;;;9.70;5.38;;;;;;;;;;5092059;28;20079;-59
2022/01/04 10:38:30;;;;;;;11.05;4.80;;;;;;;;;;5089611;28;20428;-60
2022/01/04 10:40:59;;;;;;;16.20;5.70;;;;;;;;;;5087400;28;20211;-63
2022/01/04 10:43:38;;;;;;;9.73;4.80;;;;;;;;;;5087105;28;20067;-65
2022/01/04 10:46:04;;;;;;;10.77;4.65;;;;;;;;;;5085061;28;20082;-62
2022/01/04 10:48:36;;;;;;;8.15;4.75;;;;;;;;;;5085543;28;20024;-60
2022/01/04 10:51:16;;;;;;;10.23;5.10;;;;;;;;;;5085273;28;20024;-59
2022/01/04 10:53:46;;;;;;;;;;;;;;;;;;5093165;28;20490;-65
2022/01/04 10:56:15;;;;;;;12.13;4.78;;;;;;;;;;5083123;28;20454;-64
2022/01/04 10:58:49;;;;;;;8.23;4.45;;;;;;;;;;5087869;28;20547;-60
2022/01/04 11:01:19;;;;;;;9.77;5.30;;;;;;;;;;5095472;28;20032;-57
2022/01/04 11:03:49;;;;;;;8.80;4.77;;;;;;;;;;5089565;28;20038;-59
2022/01/04 11:06:24;;;;;;;11.02;4.80;;;;;;;;;;5089315;28;20288;-59
2022/01/04 11:08:50;;;;;;;9.20;5.70;;;;;;;;;;5094198;28;20119;-60
2022/01/04 11:11:16;;;;;;;9.73;4.65;;;;;;;;;;5085199;28;20059;-62
2022/01/04 11:13:42;;;;;;;8.10;5.30;;;;;;;;;;5095927;28;20470;-62
2022/01/04 11:16:07;;;;;;;10.95;6.05;;;;;;;;;;5086938;28;20119;-61
2022/01/04 11:18:34;;;;;;;8.10;5.60;;;;;;;;;;5084535;28;20446;-59
2022/01/04 11:21:00;;;;;;;11.98;5.43;;;;;;;;;;5084509;28;20111;-63
2022/01/04 11:23:31;;;;;;;12.90;5.65;;;;;;;;;;5075515;28;20029;-62
2022/01/04 11:25:58;;;;;;;11.18;6.47;;;;;;;;;;5074694;28;20051;-60
2022/01/04 11:28:25;;;;;;;10.00;5.72;;;;;;;;;;5086677;28;20029;-61
2022/01/04 11:31:19;;;;;;;12.15;5.47;;;;;;;;;;5076512;28;20079;-60
2022/01/04 11:34:02;;;;;;;9.77;5.65;;;;;;;;;;5085843;28;20501;-60
2022/01/04 11:36:29;;;;;;;9.32;5.82;;;;;;;;;;5086188;28;20043;-59
2022/01/04 11:38:55;;;;;;;10.52;6.38;;;;;;;;;;5093815;28;20024;-59
2022/01/04 11:41:39;;;;;;;13.93;6.20;;;;;;;;;;5079441;28;20028;-61
2022/01/04 11:44:19;;;;;;;10.65;5.85;;;;;;;;;;5075410;28;20501;-61
2022/01/04 11:46:58;;;;;;;13.55;6.20;;;;;;;;;;5075432;28;20393;-59
2022/01/04 11:49:24;;;;;;;9.77;5.70;;;;;;;;;;5075548;28;20100;-61
2022/01/04 11:51:49;;;;;;;12.23;5.88;;;;;;;;;;5086019;28;20396;-59
2022/01/04 11:54:27;;;;;;;10.35;6.00;;;;;;;;;;5078112;28;20394;-60
2022/01/04 11:57:02;;;;;;;11.10;5.55;;;;;;;;;;5074915;28;20052;-59
2022/01/04 11:59:36;;;;;;;11.13;6.20;;;;;;;;;;5075414;28;20021;-59
2022/01/04 12:02:28;;;;;;;17.33;7.05;;;;;;;;;;5088756;28;20047;-60
2022/01/04 12:04:55;;;;;;;11.75;7.00;;;;;;;;;;5092909;28;20040;-60
2022/01/04 12:07:39;;;;;;;12.40;6.75;;;;;;;;;;5083730;28;20024;-59
2022/01/04 12:10:19;;;;;;;10.48;6.65;;;;;;;;;;5084281;28;20034;-59
2022/01/04 12:13:04;;;;;;;13.93;6.57;;;;;;;;;;5080048;28;20413;-57
2022/01/04 12:15:32;;;;;;;15.48;6.45;;;;;;;;;;5086184;28;20028;-59
2022/01/04 12:17:58;;;;;;;10.15;6.40;;;;;;;;;;5094398;28;20474;-58
2022/01/04 12:20:42;;;;;;;10.65;6.07;;;;;;;;;;5097046;28;20034;-57
2022/01/04 12:23:27;;;;;;;13.60;6.20;;;;;;;;;;5098828;28;20024;-62
2022/01/04 12:26:06;;;;;;;9.70;6.05;;;;;;;;;;5092639;28;20042;-61
2022/01/04 12:28:35;;;;;;;10.15;5.50;;;;;;;;;;5086678;28;20444;-61
2022/01/04 12:31:13;;;;;;;8.50;5.72;;;;;;;;;;5090925;28;20111;-59
2022/01/04 12:33:40;;;;;;;11.32;5.47;;;;;;;;;;5095219;28;20044;-62
2022/01/04 12:36:06;;;;;;;11.68;6.15;;;;;;;;;;5101817;28;20123;-60
2022/01/04 12:38:32;;;;;;;9.77;5.10;;;;;;;;;;5098681;28;20108;-60
2022/01/04 12:40:58;;;;;;;8.95;5.13;;;;;;;;;;5077641;28;20051;-58
2022/01/04 12:43:24;;;;;;;8.70;4.43;;;;;;;;;;5086344;28;20135;-60
2022/01/04 12:46:00;;;;;;;8.38;5.47;;;;;;;;;;5074257;28;20116;-62
2022/01/04 12:48:45;;;;;;;9.55;5.28;;;;;;;;;;5083768;28;20040;-61
2022/01/04 12:51:37;;;;;;;9.48;4.65;;;;;;;;;;5078356;28;20024;-64
2022/01/04 12:54:12;;;;;;;12.45;4.80;;;;;;;;;;5075185;28;20046;-60
2022/01/04 12:56:44;;;;;;;10.05;4.70;;;;;;;;;;5055998;28;20025;-59
2022/01/04 12:59:18;;;;;;;9.52;4.72;;;;;;;;;;5073962;28;20032;-59
2022/01/04 13:01:47;;;;;;;10.18;5.13;;;;;;;;;;5090257;28;20061;-62
2022/01/04 13:04:24;;;;;;;8.50;5.07;;;;;;;;;;5073657;28;20421;-59
2022/01/04 13:06:50;;;;;;;11.30;5.65;;;;;;;;;;5073766;28;20459;-60
2022/01/04 13:09:18;;;;;;;11.07;5.38;;;;;;;;;;5088171;28;20036;-58
2022/01/04 13:11:47;;;;;;;10.70;6.53;;;;;;;;;;5094060;28;20063;-63
2022/01/04 13:14:19;;;;;;;11.25;5.70;;;;;;;;;;5093961;28;20024;-62
2022/01/04 13:16:46;;;;;;;12.40;6.82;;;;;;;;;;5093857;28;20401;-62
2022/01/04 13:19:18;;;;;;;13.48;7.70;;;;;;;;;;5092568;28;20028;-60
2022/01/04 13:21:52;;;;;;;11.82;5.97;;;;;;;;;;5055808;28;20020;-59
2022/01/04 13:24:38;;;;;;;16.25;6.40;;;;;;;;;;5075980;28;20378;-59
2022/01/04 13:27:32;;;;;;;12.77;6.47;;;;;;;;;;5084183;28;20119;-59
2022/01/04 13:30:16;;;;;;;11.93;5.88;;;;;;;;;;5078978;28;20466;-61
2022/01/04 13:32:46;;;;;;;9.38;5.80;;;;;;;;;;5081638;28;20029;-60
2022/01/04 13:35:22;;;;;;;15.13;6.93;;;;;;;;;;5087563;28;20494;-59
2022/01/04 13:37:51;;;;;;;12.48;7.07;;;;;;;;;;5075557;28;20032;-60
2022/01/04 13:40:17;;;;;;;11.60;6.93;;;;;;;;;;5086907;28;20016;-62
2022/01/04 13:42:44;;;;;;;10.90;6.60;;;;;;;;;;5083656;28;20028;-60
2022/01/04 13:45:13;;;;;;;9.80;5.45;;;;;;;;;;5077275;28;20058;-59
2022/01/04 13:47:42;;;;;;;12.68;6.32;;;;;;;;;;5092389;28;20131;-62
2022/01/04 13:50:20;;;;;;;12.13;6.70;;;;;;;;;;5109695;28;20019;-61
2022/01/04 13:53:04;;;;;;;14.73;6.72;;;;;;;;;;5096089;28;20023;-60
2022/01/04 13:56:13;;;;;;;14.35;5.80;;;;;;;;;;5111851;28;20311;-64
2022/01/04 13:58:47;;;;;;;12.15;5.13;;;;;;;;;;5104899;28;20032;-59
2022/01/04 14:01:18;;;;;;;14.05;6.05;;;;;;;;;;5109955;28;20081;-60
2022/01/04 14:03:46;;;;;;;11.25;5.72;;;;;;;;;;5091051;28;20455;-59
2022/01/04 14:06:31;;;;;;;7.45;4.47;;;;;;;;;;5093060;28;20040;-59
2022/01/04 14:08:57;;;;;;;10.85;5.20;;;;;;;;;;5093038;28;20475;-59
2022/01/04 14:11:25;;;;;;;12.48;5.55;;;;;;;;;;5093252;28;20032;-61
2022/01/04 14:13:52;;;;;;;10.15;5.65;;;;;;;;;;5093160;28;20031;-60
2022/01/04 14:16:19;;;;;;;9.98;5.25;;;;;;;;;;5093130;28;20085;-60
2022/01/04 14:19:05;;;;;;;12.38;6.05;;;;;;;;;;5099029;28;20088;-59
2022/01/04 14:21:31;;;;;;;13.00;6.15;;;;;;;;;;5113472;28;20051;-60
2022/01/04 14:23:57;;;;;;;12.18;6.45;;;;;;;;;;5111275;28;20468;-61
2022/01/04 14:26:23;;;;;;;9.68;5.70;;;;;;;;;;5092885;28;20036;-60
2022/01/04 14:28:49;;;;;;;11.95;6.47;;;;;;;;;;5074971;28;20130;-65
2022/01/04 14:31:18;;;;;;;12.43;6.13;;;;;;;;;;5092409;28;20106;-60
2022/01/04 14:33:43;;;;;;;11.05;5.80;;;;;;;;;;5092951;28;20020;-63
2022/01/04 14:36:08;;;;;;;10.52;5.93;;;;;;;;;;5092831;28;20048;-63
2022/01/04 14:38:34;;;;;;;10.13;5.70;;;;;;;;;;5092926;28;20028;-64
2022/01/04 14:40:59;;;;;;;11.02;6.13;;;;;;;;;;5092895;28;20138;-62
2022/01/04 14:43:26;;;;;;;9.30;4.80;;;;;;;;;;5092899;28;20028;-65
2022/01/04 14:45:51;;;;;;;12.20;5.63;;;;;;;;;;5092254;28;20479;-62
2022/01/04 14:48:18;;;;;;;10.82;4.93;;;;;;;;;;5092970;28;20028;-61
2022/01/04 14:50:44;;;;;;;11.77;4.70;;;;;;;;;;5092725;28;20435;-65
2022/01/04 14:53:09;;;;;;;8.23;4.15;;;;;;;;;;5092476;28;20024;-63
2022/01/04 14:55:35;;;;;;;11.25;4.40;;;;;;;;;;5092724;28;20405;-62
2022/01/04 14:58:01;;;;;;;10.55;4.90;;;;;;;;;;5092692;28;20027;-63
2022/01/04 15:00:26;;;;;;;11.35;4.68;;;;;;;;;;5092546;28;20070;-60
2022/01/04 15:02:52;;;;;;;11.70;4.85;;;;;;;;;;5092745;28;20031;-59
2022/01/04 15:05:19;;;;;;;10.85;5.28;;;;;;;;;;5092527;28;20437;-65
2022/01/04 15:07:45;;;;;;;12.18;5.65;;;;;;;;;;5092315;28;20028;-59
2022/01/04 15:10:11;;;;;;;13.00;6.13;;;;;;;;;;5092725;28;20020;-58
2022/01/04 15:12:36;;;;;;;11.05;5.70;;;;;;;;;;5092677;28;20028;-58
2022/01/04 15:15:06;;;;;;;12.35;6.00;;;;;;;;;;5092337;28;20107;-60